sensor_id;sensor_type;location;lat;lon;timestamp;P1;durP1;ratioP1;P2;durP2;ratioP2
48040;SDS011;33815;48.386;11.738;2023-06-24T00:02:10;5.45;;;4.70;;
48040;SDS011;33815;48.386;11.738;2023-06-24T00:04:36;7.20;;;4.75;;
48040;SDS011;33815;48.386;11.738;2023-06-24T00:07:01;5.43;;;4.67;;
48040;SDS011;33815;48.386;11.738;2023-06-24T00:09:27;4.97;;;4.47;;
48040;SDS011;33815;48.386;11.738;2023-06-24T00:11:56;4.47;;;4.07;;
48040;SDS011;33815;48.386;11.738;2023-06-24T00:14:23;6.30;;;4.88;;
48040;SDS011;33815;48.386;11.738;2023-06-24T00:16:52;5.68;;;4.63;;
48040;SDS011;33815;48.386;11.738;2023-06-24T00:19:25;4.43;;;3.97;;
48040;SDS011;33815;48.386;11.738;2023-06-24T00:21:51;6.18;;;4.28;;
48040;SDS011;33815;48.386;11.738;2023-06-24T00:24:21;6.53;;;4.72;;
48040;SDS011;33815;48.386;11.738;2023-06-24T00:26:50;6.00;;;4.88;;
48040;SDS011;33815;48.386;11.738;2023-06-24T00:29:16;7.45;;;5.25;;
48040;SDS011;33815;48.386;11.738;2023-06-24T00:31:42;6.33;;;4.90;;
48040;SDS011;33815;48.386;11.738;2023-06-24T00:34:07;5.80;;;4.73;;
48040;SDS011;33815;48.386;11.738;2023-06-24T00:36:33;6.43;;;4.93;;
48040;SDS011;33815;48.386;11.738;2023-06-24T00:39:00;6.78;;;5.07;;
48040;SDS011;33815;48.386;11.738;2023-06-24T00:41:28;5.90;;;4.57;;
48040;SDS011;33815;48.386;11.738;2023-06-24T00:43:53;8.80;;;5.00;;
48040;SDS011;33815;48.386;11.738;2023-06-24T00:46:18;4.70;;;4.03;;
48040;SDS011;33815;48.386;11.738;2023-06-24T00:48:44;7.00;;;4.68;;
48040;SDS011;33815;48.386;11.738;2023-06-24T00:51:10;5.68;;;5.07;;
48040;SDS011;33815;48.386;11.738;2023-06-24T00:53:35;5.27;;;4.50;;
48040;SDS011;33815;48.386;11.738;2023-06-24T00:56:00;4.70;;;4.30;;
48040;SDS011;33815;48.386;11.738;2023-06-24T00:58:28;8.48;;;5.78;;
48040;SDS011;33815;48.386;11.738;2023-06-24T01:00:55;5.50;;;4.40;;
48040;SDS011;33815;48.386;11.738;2023-06-24T01:03:26;5.80;;;4.45;;
48040;SDS011;33815;48.386;11.738;2023-06-24T01:05:52;9.07;;;4.55;;
48040;SDS011;33815;48.386;11.738;2023-06-24T01:08:18;5.43;;;4.38;;
48040;SDS011;33815;48.386;11.738;2023-06-24T01:10:47;6.03;;;4.47;;
48040;SDS011;33815;48.386;11.738;2023-06-24T01:13:13;7.15;;;4.70;;
48040;SDS011;33815;48.386;11.738;2023-06-24T01:15:38;4.90;;;4.40;;
48040;SDS011;33815;48.386;11.738;2023-06-24T01:18:07;4.90;;;4.38;;
48040;SDS011;33815;48.386;11.738;2023-06-24T01:20:49;7.43;;;5.13;;
48040;SDS011;33815;48.386;11.738;2023-06-24T01:23:24;6.78;;;5.15;;
48040;SDS011;33815;48.386;11.738;2023-06-24T01:25:59;8.25;;;4.95;;
48040;SDS011;33815;48.386;11.738;2023-06-24T01:28:52;8.88;;;5.72;;
48040;SDS011;33815;48.386;11.738;2023-06-24T01:31:44;7.25;;;5.32;;
48040;SDS011;33815;48.386;11.738;2023-06-24T01:34:25;7.60;;;5.60;;
48040;SDS011;33815;48.386;11.738;2023-06-24T01:37:09;6.40;;;4.55;;
48040;SDS011;33815;48.386;11.738;2023-06-24T01:39:45;7.75;;;3.70;;
48040;SDS011;33815;48.386;11.738;2023-06-24T01:42:16;6.10;;;5.50;;
48040;SDS011;33815;48.386;11.738;2023-06-24T01:44:45;6.53;;;5.03;;
48040;SDS011;33815;48.386;11.738;2023-06-24T01:47:13;5.63;;;5.05;;
48040;SDS011;33815;48.386;11.738;2023-06-24T01:49:43;7.82;;;5.78;;
48040;SDS011;33815;48.386;11.738;2023-06-24T01:52:10;5.13;;;4.63;;
48040;SDS011;33815;48.386;11.738;2023-06-24T01:54:37;5.93;;;5.32;;
48040;SDS011;33815;48.386;11.738;2023-06-24T01:57:05;8.55;;;5.68;;
48040;SDS011;33815;48.386;11.738;2023-06-24T01:59:31;6.45;;;5.15;;
48040;SDS011;33815;48.386;11.738;2023-06-24T02:01:58;6.72;;;4.97;;
48040;SDS011;33815;48.386;11.738;2023-06-24T02:04:25;8.35;;;5.43;;
48040;SDS011;33815;48.386;11.738;2023-06-24T02:06:55;6.65;;;4.75;;
48040;SDS011;33815;48.386;11.738;2023-06-24T02:09:24;6.85;;;5.45;;
48040;SDS011;33815;48.386;11.738;2023-06-24T02:11:51;5.20;;;4.68;;
48040;SDS011;33815;48.386;11.738;2023-06-24T02:14:18;8.43;;;5.20;;
48040;SDS011;33815;48.386;11.738;2023-06-24T02:16:44;8.38;;;5.43;;
48040;SDS011;33815;48.386;11.738;2023-06-24T02:19:11;6.35;;;5.15;;
48040;SDS011;33815;48.386;11.738;2023-06-24T02:21:37;6.55;;;4.90;;
48040;SDS011;33815;48.386;11.738;2023-06-24T02:24:06;8.40;;;5.80;;
48040;SDS011;33815;48.386;11.738;2023-06-24T02:26:32;6.07;;;5.15;;
48040;SDS011;33815;48.386;11.738;2023-06-24T02:28:57;6.25;;;4.95;;
48040;SDS011;33815;48.386;11.738;2023-06-24T02:31:23;7.78;;;5.70;;
48040;SDS011;33815;48.386;11.738;2023-06-24T02:33:48;5.57;;;5.03;;
48040;SDS011;33815;48.386;11.738;2023-06-24T02:36:13;6.85;;;4.97;;
48040;SDS011;33815;48.386;11.738;2023-06-24T02:38:39;7.75;;;4.43;;
48040;SDS011;33815;48.386;11.738;2023-06-24T02:41:04;6.22;;;5.10;;
48040;SDS011;33815;48.386;11.738;2023-06-24T02:43:30;5.88;;;5.15;;
48040;SDS011;33815;48.386;11.738;2023-06-24T02:45:58;7.30;;;5.75;;
48040;SDS011;33815;48.386;11.738;2023-06-24T02:48:26;8.48;;;5.38;;
48040;SDS011;33815;48.386;11.738;2023-06-24T02:50:54;6.38;;;5.25;;
48040;SDS011;33815;48.386;11.738;2023-06-24T02:53:19;10.03;;;5.67;;
48040;SDS011;33815;48.386;11.738;2023-06-24T02:55:44;8.93;;;5.20;;
48040;SDS011;33815;48.386;11.738;2023-06-24T02:58:10;6.80;;;5.45;;
48040;SDS011;33815;48.386;11.738;2023-06-24T03:00:37;9.52;;;5.43;;
48040;SDS011;33815;48.386;11.738;2023-06-24T03:03:03;7.85;;;5.20;;
48040;SDS011;33815;48.386;11.738;2023-06-24T03:05:30;6.78;;;5.70;;
48040;SDS011;33815;48.386;11.738;2023-06-24T03:07:57;6.70;;;5.68;;
48040;SDS011;33815;48.386;11.738;2023-06-24T03:10:24;6.97;;;6.10;;
48040;SDS011;33815;48.386;11.738;2023-06-24T03:12:50;5.85;;;5.07;;
48040;SDS011;33815;48.386;11.738;2023-06-24T03:15:16;8.55;;;5.13;;
48040;SDS011;33815;48.386;11.738;2023-06-24T03:17:41;6.70;;;5.47;;
48040;SDS011;33815;48.386;11.738;2023-06-24T03:20:06;6.38;;;5.22;;
48040;SDS011;33815;48.386;11.738;2023-06-24T03:22:33;8.38;;;5.90;;
48040;SDS011;33815;48.386;11.738;2023-06-24T03:24:58;7.47;;;6.10;;
48040;SDS011;33815;48.386;11.738;2023-06-24T03:27:23;7.05;;;5.50;;
48040;SDS011;33815;48.386;11.738;2023-06-24T03:29:49;6.18;;;5.57;;
48040;SDS011;33815;48.386;11.738;2023-06-24T03:32:14;7.13;;;5.07;;
48040;SDS011;33815;48.386;11.738;2023-06-24T03:34:39;7.78;;;5.38;;
48040;SDS011;33815;48.386;11.738;2023-06-24T03:37:05;7.90;;;5.30;;
48040;SDS011;33815;48.386;11.738;2023-06-24T03:39:30;8.05;;;5.28;;
48040;SDS011;33815;48.386;11.738;2023-06-24T03:41:55;6.65;;;5.88;;
48040;SDS011;33815;48.386;11.738;2023-06-24T03:44:21;6.57;;;5.50;;
48040;SDS011;33815;48.386;11.738;2023-06-24T03:46:46;7.33;;;5.60;;
48040;SDS011;33815;48.386;11.738;2023-06-24T03:49:11;6.70;;;5.30;;
48040;SDS011;33815;48.386;11.738;2023-06-24T03:51:36;8.48;;;5.90;;
48040;SDS011;33815;48.386;11.738;2023-06-24T03:54:02;6.38;;;5.47;;
48040;SDS011;33815;48.386;11.738;2023-06-24T03:56:27;7.90;;;5.47;;
48040;SDS011;33815;48.386;11.738;2023-06-24T03:58:52;9.45;;;5.30;;
48040;SDS011;33815;48.386;11.738;2023-06-24T04:01:18;6.70;;;4.93;;
48040;SDS011;33815;48.386;11.738;2023-06-24T04:03:44;7.35;;;5.00;;
48040;SDS011;33815;48.386;11.738;2023-06-24T04:06:09;8.80;;;5.30;;
48040;SDS011;33815;48.386;11.738;2023-06-24T04:08:35;5.88;;;4.78;;
48040;SDS011;33815;48.386;11.738;2023-06-24T04:11:00;6.10;;;5.50;;
48040;SDS011;33815;48.386;11.738;2023-06-24T04:13:27;9.30;;;5.03;;
48040;SDS011;33815;48.386;11.738;2023-06-24T04:15:52;7.90;;;5.50;;
48040;SDS011;33815;48.386;11.738;2023-06-24T04:18:18;5.70;;;4.90;;
48040;SDS011;33815;48.386;11.738;2023-06-24T04:20:44;5.95;;;5.00;;
48040;SDS011;33815;48.386;11.738;2023-06-24T04:23:09;6.73;;;5.40;;
48040;SDS011;33815;48.386;11.738;2023-06-24T04:25:36;6.75;;;5.25;;
48040;SDS011;33815;48.386;11.738;2023-06-24T04:28:01;8.43;;;5.45;;
48040;SDS011;33815;48.386;11.738;2023-06-24T04:30:29;7.35;;;5.57;;
48040;SDS011;33815;48.386;11.738;2023-06-24T04:32:55;7.28;;;5.80;;
48040;SDS011;33815;48.386;11.738;2023-06-24T04:35:20;6.47;;;4.97;;
48040;SDS011;33815;48.386;11.738;2023-06-24T04:37:46;8.77;;;5.30;;
48040;SDS011;33815;48.386;11.738;2023-06-24T04:40:11;8.63;;;5.63;;
48040;SDS011;33815;48.386;11.738;2023-06-24T04:42:38;7.68;;;5.30;;
48040;SDS011;33815;48.386;11.738;2023-06-24T04:45:03;6.60;;;5.40;;
48040;SDS011;33815;48.386;11.738;2023-06-24T04:47:30;7.40;;;5.30;;
48040;SDS011;33815;48.386;11.738;2023-06-24T04:49:55;10.05;;;5.22;;
48040;SDS011;33815;48.386;11.738;2023-06-24T04:52:21;7.17;;;5.47;;
48040;SDS011;33815;48.386;11.738;2023-06-24T04:54:48;6.35;;;4.80;;
48040;SDS011;33815;48.386;11.738;2023-06-24T04:57:22;9.18;;;5.15;;
48040;SDS011;33815;48.386;11.738;2023-06-24T04:59:49;7.18;;;4.75;;
48040;SDS011;33815;48.386;11.738;2023-06-24T05:02:14;6.00;;;4.27;;
48040;SDS011;33815;48.386;11.738;2023-06-24T05:04:40;4.80;;;4.27;;
48040;SDS011;33815;48.386;11.738;2023-06-24T05:07:05;8.47;;;5.80;;
48040;SDS011;33815;48.386;11.738;2023-06-24T05:09:30;4.87;;;4.30;;
48040;SDS011;33815;48.386;11.738;2023-06-24T05:11:55;5.33;;;4.23;;
48040;SDS011;33815;48.386;11.738;2023-06-24T05:14:21;6.53;;;5.13;;
48040;SDS011;33815;48.386;11.738;2023-06-24T05:16:46;4.93;;;4.43;;
48040;SDS011;33815;48.386;11.738;2023-06-24T05:19:11;6.80;;;4.33;;
48040;SDS011;33815;48.386;11.738;2023-06-24T05:21:36;8.20;;;5.30;;
48040;SDS011;33815;48.386;11.738;2023-06-24T05:24:02;6.60;;;4.93;;
48040;SDS011;33815;48.386;11.738;2023-06-24T05:26:27;4.82;;;4.32;;
48040;SDS011;33815;48.386;11.738;2023-06-24T05:28:53;4.88;;;4.38;;
48040;SDS011;33815;48.386;11.738;2023-06-24T05:31:18;5.20;;;4.50;;
48040;SDS011;33815;48.386;11.738;2023-06-24T05:33:44;4.63;;;4.13;;
48040;SDS011;33815;48.386;11.738;2023-06-24T05:36:09;7.47;;;4.43;;
48040;SDS011;33815;48.386;11.738;2023-06-24T05:38:34;5.80;;;4.50;;
48040;SDS011;33815;48.386;11.738;2023-06-24T05:40:59;8.43;;;4.03;;
48040;SDS011;33815;48.386;11.738;2023-06-24T05:43:27;5.65;;;4.97;;
48040;SDS011;33815;48.386;11.738;2023-06-24T05:45:52;5.07;;;4.50;;
48040;SDS011;33815;48.386;11.738;2023-06-24T05:48:17;4.07;;;3.70;;
48040;SDS011;33815;48.386;11.738;2023-06-24T05:50:43;5.37;;;4.63;;
48040;SDS011;33815;48.386;11.738;2023-06-24T05:53:08;4.47;;;3.83;;
48040;SDS011;33815;48.386;11.738;2023-06-24T05:55:33;5.87;;;4.87;;
48040;SDS011;33815;48.386;11.738;2023-06-24T05:57:59;5.63;;;4.35;;
48040;SDS011;33815;48.386;11.738;2023-06-24T06:00:24;5.87;;;4.17;;
48040;SDS011;33815;48.386;11.738;2023-06-24T06:02:49;6.55;;;4.18;;
48040;SDS011;33815;48.386;11.738;2023-06-24T06:05:14;6.43;;;3.80;;
48040;SDS011;33815;48.386;11.738;2023-06-24T06:07:40;5.73;;;4.30;;
48040;SDS011;33815;48.386;11.738;2023-06-24T06:10:05;6.90;;;4.37;;
48040;SDS011;33815;48.386;11.738;2023-06-24T06:12:31;5.30;;;4.07;;
48040;SDS011;33815;48.386;11.738;2023-06-24T06:14:57;4.40;;;4.00;;
48040;SDS011;33815;48.386;11.738;2023-06-24T06:17:23;7.80;;;4.50;;
48040;SDS011;33815;48.386;11.738;2023-06-24T06:19:48;5.55;;;4.10;;
48040;SDS011;33815;48.386;11.738;2023-06-24T06:22:13;6.63;;;3.95;;
48040;SDS011;33815;48.386;11.738;2023-06-24T06:24:40;5.72;;;3.55;;
48040;SDS011;33815;48.386;11.738;2023-06-24T06:27:09;4.65;;;4.05;;
48040;SDS011;33815;48.386;11.738;2023-06-24T06:29:35;5.93;;;4.40;;
48040;SDS011;33815;48.386;11.738;2023-06-24T06:32:00;5.27;;;3.37;;
48040;SDS011;33815;48.386;11.738;2023-06-24T06:34:25;4.10;;;3.70;;
48040;SDS011;33815;48.386;11.738;2023-06-24T06:36:51;4.10;;;3.70;;
48040;SDS011;33815;48.386;11.738;2023-06-24T06:39:16;4.43;;;3.85;;
48040;SDS011;33815;48.386;11.738;2023-06-24T06:41:41;4.63;;;3.90;;
48040;SDS011;33815;48.386;11.738;2023-06-24T06:44:06;4.20;;;3.50;;
48040;SDS011;33815;48.386;11.738;2023-06-24T06:46:32;3.53;;;2.93;;
48040;SDS011;33815;48.386;11.738;2023-06-24T06:48:57;3.80;;;3.50;;
48040;SDS011;33815;48.386;11.738;2023-06-24T06:51:23;4.17;;;3.67;;
48040;SDS011;33815;48.386;11.738;2023-06-24T06:53:49;4.80;;;3.53;;
48040;SDS011;33815;48.386;11.738;2023-06-24T06:56:18;3.85;;;3.50;;
48040;SDS011;33815;48.386;11.738;2023-06-24T06:58:53;3.58;;;3.25;;
48040;SDS011;33815;48.386;11.738;2023-06-24T07:01:18;4.18;;;3.47;;
48040;SDS011;33815;48.386;11.738;2023-06-24T07:03:44;2.85;;;2.65;;
48040;SDS011;33815;48.386;11.738;2023-06-24T07:06:09;4.65;;;3.28;;
48040;SDS011;33815;48.386;11.738;2023-06-24T07:08:35;3.75;;;3.35;;
48040;SDS011;33815;48.386;11.738;2023-06-24T07:11:01;5.30;;;3.60;;
48040;SDS011;33815;48.386;11.738;2023-06-24T07:13:27;4.32;;;3.22;;
48040;SDS011;33815;48.386;11.738;2023-06-24T07:15:52;8.47;;;4.03;;
48040;SDS011;33815;48.386;11.738;2023-06-24T07:18:17;4.27;;;3.87;;
48040;SDS011;33815;48.386;11.738;2023-06-24T07:20:42;3.80;;;3.23;;
48040;SDS011;33815;48.386;11.738;2023-06-24T07:23:07;4.97;;;3.37;;
48040;SDS011;33815;48.386;11.738;2023-06-24T07:25:33;5.97;;;3.40;;
48040;SDS011;33815;48.386;11.738;2023-06-24T07:27:59;4.88;;;2.95;;
48040;SDS011;33815;48.386;11.738;2023-06-24T07:30:24;3.80;;;3.10;;
48040;SDS011;33815;48.386;11.738;2023-06-24T07:32:50;4.17;;;3.57;;
48040;SDS011;33815;48.386;11.738;2023-06-24T07:35:15;3.43;;;3.13;;
48040;SDS011;33815;48.386;11.738;2023-06-24T07:37:41;4.40;;;3.40;;
48040;SDS011;33815;48.386;11.738;2023-06-24T07:40:06;4.00;;;3.38;;
48040;SDS011;33815;48.386;11.738;2023-06-24T07:42:33;4.10;;;3.42;;
48040;SDS011;33815;48.386;11.738;2023-06-24T07:44:58;5.20;;;3.47;;
48040;SDS011;33815;48.386;11.738;2023-06-24T07:47:23;4.35;;;2.80;;
48040;SDS011;33815;48.386;11.738;2023-06-24T07:49:49;6.33;;;3.07;;
48040;SDS011;33815;48.386;11.738;2023-06-24T07:52:14;3.30;;;3.00;;
48040;SDS011;33815;48.386;11.738;2023-06-24T07:54:40;4.03;;;3.38;;
48040;SDS011;33815;48.386;11.738;2023-06-24T07:57:05;5.53;;;3.72;;
48040;SDS011;33815;48.386;11.738;2023-06-24T07:59:31;3.47;;;3.17;;
48040;SDS011;33815;48.386;11.738;2023-06-24T08:01:56;3.85;;;3.47;;
48040;SDS011;33815;48.386;11.738;2023-06-24T08:04:21;3.50;;;2.97;;
48040;SDS011;33815;48.386;11.738;2023-06-24T08:06:46;2.90;;;2.50;;
48040;SDS011;33815;48.386;11.738;2023-06-24T08:09:12;5.93;;;2.92;;
48040;SDS011;33815;48.386;11.738;2023-06-24T08:11:37;3.97;;;3.63;;
48040;SDS011;33815;48.386;11.738;2023-06-24T08:14:02;3.03;;;2.72;;
48040;SDS011;33815;48.386;11.738;2023-06-24T08:16:29;7.47;;;2.92;;
48040;SDS011;33815;48.386;11.738;2023-06-24T08:18:54;3.80;;;2.70;;
48040;SDS011;33815;48.386;11.738;2023-06-24T08:21:19;3.00;;;2.80;;
48040;SDS011;33815;48.386;11.738;2023-06-24T08:23:45;2.60;;;2.33;;
48040;SDS011;33815;48.386;11.738;2023-06-24T08:26:11;2.40;;;2.20;;
48040;SDS011;33815;48.386;11.738;2023-06-24T08:28:36;2.72;;;2.45;;
48040;SDS011;33815;48.386;11.738;2023-06-24T08:31:02;3.00;;;2.42;;
48040;SDS011;33815;48.386;11.738;2023-06-24T08:33:27;4.03;;;2.70;;
48040;SDS011;33815;48.386;11.738;2023-06-24T08:35:52;3.13;;;2.73;;
48040;SDS011;33815;48.386;11.738;2023-06-24T08:38:17;3.40;;;2.53;;
48040;SDS011;33815;48.386;11.738;2023-06-24T08:40:43;3.60;;;2.63;;
48040;SDS011;33815;48.386;11.738;2023-06-24T08:43:10;3.17;;;2.88;;
48040;SDS011;33815;48.386;11.738;2023-06-24T08:45:35;4.53;;;3.20;;
48040;SDS011;33815;48.386;11.738;2023-06-24T08:48:01;3.20;;;2.83;;
48040;SDS011;33815;48.386;11.738;2023-06-24T08:50:30;3.28;;;2.90;;
48040;SDS011;33815;48.386;11.738;2023-06-24T08:53:00;4.20;;;3.42;;
48040;SDS011;33815;48.386;11.738;2023-06-24T08:55:31;4.13;;;3.03;;
48040;SDS011;33815;48.386;11.738;2023-06-24T08:58:01;2.90;;;2.60;;
48040;SDS011;33815;48.386;11.738;2023-06-24T09:00:27;3.30;;;3.00;;
48040;SDS011;33815;48.386;11.738;2023-06-24T09:02:52;3.97;;;3.50;;
48040;SDS011;33815;48.386;11.738;2023-06-24T09:05:18;3.10;;;2.80;;
48040;SDS011;33815;48.386;11.738;2023-06-24T09:07:43;5.43;;;3.40;;
48040;SDS011;33815;48.386;11.738;2023-06-24T09:10:08;5.10;;;3.30;;
48040;SDS011;33815;48.386;11.738;2023-06-24T09:12:34;8.02;;;3.85;;
48040;SDS011;33815;48.386;11.738;2023-06-24T09:14:59;6.45;;;3.90;;
48040;SDS011;33815;48.386;11.738;2023-06-24T09:17:25;4.05;;;3.65;;
48040;SDS011;33815;48.386;11.738;2023-06-24T09:19:50;4.70;;;3.33;;
48040;SDS011;33815;48.386;11.738;2023-06-24T09:22:16;4.28;;;3.38;;
48040;SDS011;33815;48.386;11.738;2023-06-24T09:24:45;4.50;;;3.50;;
48040;SDS011;33815;48.386;11.738;2023-06-24T09:27:12;5.13;;;3.53;;
48040;SDS011;33815;48.386;11.738;2023-06-24T09:29:39;3.22;;;2.70;;
48040;SDS011;33815;48.386;11.738;2023-06-24T09:32:05;3.17;;;2.88;;
48040;SDS011;33815;48.386;11.738;2023-06-24T09:34:31;2.88;;;2.67;;
48040;SDS011;33815;48.386;11.738;2023-06-24T09:36:57;4.65;;;3.00;;
48040;SDS011;33815;48.386;11.738;2023-06-24T09:39:24;5.25;;;3.45;;
48040;SDS011;33815;48.386;11.738;2023-06-24T09:41:54;3.47;;;3.13;;
48040;SDS011;33815;48.386;11.738;2023-06-24T09:44:19;3.85;;;3.45;;
48040;SDS011;33815;48.386;11.738;2023-06-24T09:46:45;3.63;;;3.30;;
48040;SDS011;33815;48.386;11.738;2023-06-24T09:49:10;3.67;;;3.38;;
48040;SDS011;33815;48.386;11.738;2023-06-24T09:51:40;4.63;;;3.60;;
48040;SDS011;33815;48.386;11.738;2023-06-24T09:54:09;3.17;;;2.88;;
48040;SDS011;33815;48.386;11.738;2023-06-24T09:56:36;3.00;;;2.67;;
48040;SDS011;33815;48.386;11.738;2023-06-24T09:59:06;3.40;;;2.40;;
48040;SDS011;33815;48.386;11.738;2023-06-24T10:01:32;2.85;;;2.60;;
48040;SDS011;33815;48.386;11.738;2023-06-24T10:04:03;3.20;;;2.35;;
48040;SDS011;33815;48.386;11.738;2023-06-24T10:06:29;2.00;;;1.90;;
48040;SDS011;33815;48.386;11.738;2023-06-24T10:08:55;2.78;;;2.40;;
48040;SDS011;33815;48.386;11.738;2023-06-24T10:11:21;3.97;;;2.70;;
48040;SDS011;33815;48.386;11.738;2023-06-24T10:13:46;4.73;;;3.37;;
48040;SDS011;33815;48.386;11.738;2023-06-24T10:16:12;7.13;;;3.40;;
48040;SDS011;33815;48.386;11.738;2023-06-24T10:18:38;3.78;;;3.38;;
48040;SDS011;33815;48.386;11.738;2023-06-24T10:21:04;8.13;;;3.90;;
48040;SDS011;33815;48.386;11.738;2023-06-24T10:23:31;4.85;;;3.53;;
48040;SDS011;33815;48.386;11.738;2023-06-24T10:25:58;4.03;;;3.08;;
48040;SDS011;33815;48.386;11.738;2023-06-24T10:28:24;4.80;;;3.22;;
48040;SDS011;33815;48.386;11.738;2023-06-24T10:30:55;3.38;;;3.08;;
48040;SDS011;33815;48.386;11.738;2023-06-24T10:33:21;4.25;;;3.65;;
48040;SDS011;33815;48.386;11.738;2023-06-24T10:35:49;3.85;;;3.38;;
48040;SDS011;33815;48.386;11.738;2023-06-24T10:38:15;6.05;;;3.03;;
48040;SDS011;33815;48.386;11.738;2023-06-24T10:40:43;2.97;;;2.67;;
48040;SDS011;33815;48.386;11.738;2023-06-24T10:43:28;3.50;;;2.53;;
48040;SDS011;33815;48.386;11.738;2023-06-24T10:45:57;3.22;;;2.55;;
48040;SDS011;33815;48.386;11.738;2023-06-24T10:48:23;3.58;;;2.53;;
48040;SDS011;33815;48.386;11.738;2023-06-24T10:50:49;3.33;;;2.40;;
48040;SDS011;33815;48.386;11.738;2023-06-24T10:53:15;2.67;;;2.35;;
48040;SDS011;33815;48.386;11.738;2023-06-24T10:55:43;3.67;;;2.58;;
48040;SDS011;33815;48.386;11.738;2023-06-24T10:58:10;9.50;;;2.55;;
48040;SDS011;33815;48.386;11.738;2023-06-24T11:00:37;2.90;;;2.70;;
48040;SDS011;33815;48.386;11.738;2023-06-24T11:05:39;3.03;;;2.63;;
48040;SDS011;33815;48.386;11.738;2023-06-24T11:08:05;4.22;;;2.58;;
48040;SDS011;33815;48.386;11.738;2023-06-24T11:10:31;2.90;;;2.53;;
48040;SDS011;33815;48.386;11.738;2023-06-24T11:12:57;3.38;;;2.53;;
48040;SDS011;33815;48.386;11.738;2023-06-24T11:15:24;3.42;;;2.95;;
48040;SDS011;33815;48.386;11.738;2023-06-24T11:17:50;2.42;;;2.22;;
48040;SDS011;33815;48.386;11.738;2023-06-24T11:20:16;3.22;;;2.55;;
48040;SDS011;33815;48.386;11.738;2023-06-24T11:22:42;3.67;;;2.73;;
48040;SDS011;33815;48.386;11.738;2023-06-24T11:25:15;2.80;;;2.30;;
48040;SDS011;33815;48.386;11.738;2023-06-24T11:27:41;5.70;;;4.07;;
48040;SDS011;33815;48.386;11.738;2023-06-24T11:30:07;4.27;;;3.07;;
48040;SDS011;33815;48.386;11.738;2023-06-24T11:32:39;2.80;;;2.60;;
48040;SDS011;33815;48.386;11.738;2023-06-24T11:35:06;5.97;;;2.75;;
48040;SDS011;33815;48.386;11.738;2023-06-24T11:37:33;2.80;;;2.60;;
48040;SDS011;33815;48.386;11.738;2023-06-24T11:40:05;4.38;;;2.63;;
48040;SDS011;33815;48.386;11.738;2023-06-24T11:42:32;2.60;;;2.28;;
48040;SDS011;33815;48.386;11.738;2023-06-24T11:45:01;2.00;;;1.80;;
48040;SDS011;33815;48.386;11.738;2023-06-24T11:47:34;2.25;;;2.05;;
48040;SDS011;33815;48.386;11.738;2023-06-24T11:50:00;3.00;;;2.58;;
48040;SDS011;33815;48.386;11.738;2023-06-24T11:52:41;4.47;;;2.45;;
48040;SDS011;33815;48.386;11.738;2023-06-24T11:55:12;2.55;;;2.33;;
48040;SDS011;33815;48.386;11.738;2023-06-24T11:57:47;2.78;;;2.13;;
48040;SDS011;33815;48.386;11.738;2023-06-24T12:00:19;2.22;;;2.03;;
48040;SDS011;33815;48.386;11.738;2023-06-24T12:02:56;4.28;;;2.30;;
48040;SDS011;33815;48.386;11.738;2023-06-24T12:05:23;2.22;;;2.05;;
48040;SDS011;33815;48.386;11.738;2023-06-24T12:07:52;2.38;;;2.15;;
48040;SDS011;33815;48.386;11.738;2023-06-24T12:10:19;3.00;;;2.40;;
48040;SDS011;33815;48.386;11.738;2023-06-24T12:12:44;2.73;;;2.53;;
48040;SDS011;33815;48.386;11.738;2023-06-24T12:15:09;4.20;;;2.47;;
48040;SDS011;33815;48.386;11.738;2023-06-24T12:17:35;23.55;;;14.57;;
48040;SDS011;33815;48.386;11.738;2023-06-24T12:20:00;6.67;;;5.43;;
48040;SDS011;33815;48.386;11.738;2023-06-24T12:22:25;3.75;;;3.38;;
48040;SDS011;33815;48.386;11.738;2023-06-24T12:24:52;3.15;;;2.70;;
48040;SDS011;33815;48.386;11.738;2023-06-24T12:27:17;2.10;;;1.90;;
48040;SDS011;33815;48.386;11.738;2023-06-24T12:29:42;2.90;;;2.60;;
48040;SDS011;33815;48.386;11.738;2023-06-24T12:32:07;2.03;;;1.93;;
48040;SDS011;33815;48.386;11.738;2023-06-24T12:34:33;6.63;;;5.95;;
48040;SDS011;33815;48.386;11.738;2023-06-24T12:36:58;9.77;;;6.27;;
48040;SDS011;33815;48.386;11.738;2023-06-24T12:39:23;5.40;;;3.63;;
48040;SDS011;33815;48.386;11.738;2023-06-24T12:41:48;2.60;;;2.40;;
48040;SDS011;33815;48.386;11.738;2023-06-24T12:44:14;2.33;;;2.13;;
48040;SDS011;33815;48.386;11.738;2023-06-24T12:46:40;2.53;;;2.33;;
48040;SDS011;33815;48.386;11.738;2023-06-24T12:49:05;2.50;;;2.30;;
48040;SDS011;33815;48.386;11.738;2023-06-24T12:51:30;3.90;;;2.50;;
48040;SDS011;33815;48.386;11.738;2023-06-24T12:53:56;2.40;;;2.20;;
48040;SDS011;33815;48.386;11.738;2023-06-24T12:56:21;2.60;;;2.27;;
48040;SDS011;33815;48.386;11.738;2023-06-24T12:58:46;2.90;;;2.45;;
48040;SDS011;33815;48.386;11.738;2023-06-24T13:01:11;5.80;;;2.67;;
48040;SDS011;33815;48.386;11.738;2023-06-24T13:03:37;3.10;;;2.63;;
48040;SDS011;33815;48.386;11.738;2023-06-24T13:06:02;2.40;;;2.20;;
48040;SDS011;33815;48.386;11.738;2023-06-24T13:08:27;2.53;;;2.33;;
48040;SDS011;33815;48.386;11.738;2023-06-24T13:10:53;2.93;;;2.20;;
48040;SDS011;33815;48.386;11.738;2023-06-24T13:13:18;5.43;;;2.20;;
48040;SDS011;33815;48.386;11.738;2023-06-24T13:15:43;2.57;;;2.07;;
48040;SDS011;33815;48.386;11.738;2023-06-24T13:18:08;2.40;;;2.20;;
48040;SDS011;33815;48.386;11.738;2023-06-24T13:20:33;4.57;;;2.13;;
48040;SDS011;33815;48.386;11.738;2023-06-24T13:22:59;4.07;;;2.53;;
48040;SDS011;33815;48.386;11.738;2023-06-24T13:25:24;2.67;;;2.47;;
48040;SDS011;33815;48.386;11.738;2023-06-24T13:27:49;2.43;;;2.23;;
48040;SDS011;33815;48.386;11.738;2023-06-24T13:30:15;2.47;;;2.28;;
48040;SDS011;33815;48.386;11.738;2023-06-24T13:32:40;3.38;;;2.55;;
48040;SDS011;33815;48.386;11.738;2023-06-24T13:35:06;2.20;;;2.00;;
48040;SDS011;33815;48.386;11.738;2023-06-24T13:37:31;3.97;;;2.60;;
48040;SDS011;33815;48.386;11.738;2023-06-24T13:39:56;2.93;;;2.40;;
48040;SDS011;33815;48.386;11.738;2023-06-24T13:42:22;1.83;;;1.73;;
48040;SDS011;33815;48.386;11.738;2023-06-24T13:44:47;2.13;;;2.03;;
48040;SDS011;33815;48.386;11.738;2023-06-24T13:47:12;2.07;;;1.87;;
48040;SDS011;33815;48.386;11.738;2023-06-24T13:49:38;2.22;;;2.13;;
48040;SDS011;33815;48.386;11.738;2023-06-24T13:52:03;3.77;;;2.10;;
48040;SDS011;33815;48.386;11.738;2023-06-24T13:54:29;5.00;;;2.65;;
48040;SDS011;33815;48.386;11.738;2023-06-24T13:56:57;2.83;;;2.50;;
48040;SDS011;33815;48.386;11.738;2023-06-24T13:59:23;2.85;;;2.50;;
48040;SDS011;33815;48.386;11.738;2023-06-24T14:01:48;4.57;;;2.30;;
48040;SDS011;33815;48.386;11.738;2023-06-24T14:04:13;3.17;;;2.33;;
48040;SDS011;33815;48.386;11.738;2023-06-24T14:06:38;3.17;;;2.30;;
48040;SDS011;33815;48.386;11.738;2023-06-24T14:09:04;3.38;;;2.58;;
48040;SDS011;33815;48.386;11.738;2023-06-24T14:11:30;3.85;;;2.40;;
48040;SDS011;33815;48.386;11.738;2023-06-24T14:13:55;2.40;;;2.20;;
48040;SDS011;33815;48.386;11.738;2023-06-24T14:16:20;3.63;;;2.93;;
48040;SDS011;33815;48.386;11.738;2023-06-24T14:18:45;2.87;;;2.10;;
48040;SDS011;33815;48.386;11.738;2023-06-24T14:21:11;2.50;;;2.27;;
48040;SDS011;33815;48.386;11.738;2023-06-24T14:23:36;2.72;;;2.40;;
48040;SDS011;33815;48.386;11.738;2023-06-24T14:26:02;3.67;;;3.13;;
48040;SDS011;33815;48.386;11.738;2023-06-24T14:28:27;3.65;;;2.33;;
48040;SDS011;33815;48.386;11.738;2023-06-24T14:30:52;2.80;;;2.47;;
48040;SDS011;33815;48.386;11.738;2023-06-24T14:33:18;4.65;;;2.30;;